createdAt,value
2024-02-27T00:00:01.528Z,25.2
2024-02-27T00:05:01.160Z,25.4
2024-02-27T00:10:01.136Z,25.5
2024-02-27T00:15:01.852Z,25.9
2024-02-27T00:20:01.683Z,26
2024-02-27T00:25:01.254Z,26.1
2024-02-27T00:30:01.191Z,26.2
2024-02-27T00:35:01.996Z,26.4
2024-02-27T00:40:02.055Z,26.7
2024-02-27T00:45:02.087Z,27
2024-02-27T00:50:01.590Z,27.2
2024-02-27T00:55:01.360Z,27.5
2024-02-27T01:00:01.352Z,27.6
2024-02-27T01:05:01.851Z,27.8
2024-02-27T01:10:01.461Z,27.9
2024-02-27T01:15:01.505Z,27.9
2024-02-27T01:20:01.565Z,28.1
2024-02-27T01:25:01.517Z,28.3
2024-02-27T01:30:01.266Z,28.3
2024-02-27T01:35:02.403Z,28.4
2024-02-27T01:40:01.924Z,28.4
2024-02-27T01:45:02.093Z,28.6
2024-02-27T01:50:01.415Z,28.6
2024-02-27T01:55:01.883Z,28.6
2024-02-27T02:00:02.098Z,28.6
2024-02-27T02:05:02.166Z,28.7
2024-02-27T02:30:01.952Z,29.1
2024-02-27T02:35:02.106Z,28.8
2024-02-27T02:40:01.145Z,28.6
2024-02-27T02:45:01.489Z,28.6
2024-02-27T02:50:01.583Z,28.6
2024-02-27T02:55:01.921Z,28.6
2024-02-27T03:00:02.100Z,28.6
2024-02-27T03:05:01.139Z,28.8
2024-02-27T03:10:01.994Z,28.9
2024-02-27T03:15:02.088Z,28.8
2024-02-27T03:20:01.412Z,28.7
2024-02-27T03:25:01.827Z,28.7
2024-02-27T03:30:02.115Z,28.7
2024-02-27T03:35:02.133Z,28.6
2024-02-27T03:40:01.259Z,28.5
2024-02-27T03:45:01.641Z,28.7
2024-02-27T03:50:01.852Z,28.7
2024-02-27T03:55:01.139Z,28.8
2024-02-27T04:00:01.370Z,29.1
2024-02-27T04:05:01.217Z,29.2
2024-02-27T04:10:01.254Z,28.8
2024-02-27T04:15:01.436Z,28.9
2024-02-27T04:20:01.416Z,29.4
2024-02-27T04:25:01.324Z,29.2
2024-02-27T04:30:01.199Z,29.1
2024-02-27T04:35:02.076Z,29.1
2024-02-27T04:40:01.227Z,29.3
2024-02-27T04:45:01.615Z,29.2
2024-02-27T04:50:01.769Z,29.1
2024-02-27T04:55:01.742Z,29.2
2024-02-27T05:00:01.989Z,29.3
2024-02-27T05:05:01.722Z,29.3
2024-02-27T05:10:02.001Z,29.1
2024-02-27T05:15:01.334Z,29.3
2024-02-27T05:25:01.687Z,29.4
2024-02-27T05:30:01.830Z,29.3
2024-02-27T05:35:01.889Z,29.3
2024-02-27T05:55:01.593Z,29.4
2024-02-27T06:00:01.832Z,29.4
2024-02-27T06:05:01.643Z,29.4
2024-02-27T06:10:01.740Z,29.4
2024-02-27T06:15:01.807Z,29.4
2024-02-27T06:20:02.036Z,29.6
2024-02-27T06:25:01.917Z,29.4
2024-02-27T06:30:02.091Z,29.4
2024-02-27T06:35:01.862Z,29.4
2024-02-27T06:40:01.403Z,29.4
2024-02-27T06:45:01.365Z,29.3
2024-02-27T06:50:01.847Z,29.4
2024-02-27T06:55:01.910Z,29.4
2024-02-27T07:00:02.196Z,29.3
2024-02-27T07:05:02.095Z,29.4
2024-02-27T07:10:01.963Z,29.4
2024-02-27T07:15:01.195Z,29.5
2024-02-27T07:20:01.355Z,29.6
2024-02-27T07:25:02.144Z,29.8
2024-02-27T07:30:01.851Z,29.6
2024-02-27T07:35:01.736Z,29.4
2024-02-27T07:40:01.864Z,29.5
2024-02-27T07:45:01.945Z,29.6
2024-02-27T07:50:01.736Z,29.6
2024-02-27T07:55:01.678Z,29.6
2024-02-27T08:00:01.984Z,29.7
2024-02-27T08:05:01.593Z,29.7
2024-02-27T08:10:01.691Z,29.7
2024-02-27T08:15:01.640Z,29.7
2024-02-27T08:20:01.580Z,29.8
2024-02-27T08:25:02.047Z,29.7
2024-02-27T08:30:01.249Z,29.6
2024-02-27T08:35:01.510Z,29.6
2024-02-27T08:40:01.400Z,29.7
2024-02-27T08:45:01.392Z,29.8
2024-02-27T08:50:01.340Z,29.8
2024-02-27T08:55:01.308Z,29.8
2024-02-27T09:00:01.268Z,29.9
2024-02-27T09:05:02.045Z,29.8
2024-02-27T09:10:01.249Z,29.7
2024-02-27T09:15:01.231Z,29.9
2024-02-27T09:20:02.036Z,29.7
2024-02-27T09:25:02.041Z,29.8
2024-02-27T09:30:02.125Z,29.7
2024-02-27T09:35:02.076Z,29.8
2024-02-27T09:40:02.047Z,29.8
2024-02-27T09:45:01.866Z,29.9
2024-02-27T09:50:02.001Z,29.8
2024-02-27T09:55:01.611Z,29.8
2024-02-27T10:00:01.699Z,29.8
2024-02-27T10:05:01.405Z,29.8
2024-02-27T10:10:02.057Z,29.9
2024-02-27T10:15:01.830Z,29.7
2024-02-27T10:20:01.768Z,29.8
2024-02-27T10:25:01.464Z,29.7
2024-02-27T10:30:01.495Z,29.7
2024-02-27T10:35:01.906Z,29.7
2024-02-27T10:40:01.348Z,29.4
2024-02-27T10:45:01.642Z,29.4
2024-02-27T10:50:02.080Z,29.5
2024-02-27T10:55:02.120Z,29.4
2024-02-27T11:00:01.976Z,29.3
2024-02-27T11:05:02.011Z,29.4
2024-02-27T11:10:01.808Z,29.3
2024-02-27T11:15:01.958Z,29.3
2024-02-27T11:20:01.944Z,29.4
2024-02-27T11:25:01.253Z,29.3
2024-02-27T11:30:01.398Z,29.3
2024-02-27T11:35:01.313Z,29.3
2024-02-27T11:40:01.831Z,29.3
2024-02-27T11:45:01.690Z,29.3
2024-02-27T11:50:01.455Z,29.3
2024-02-27T11:55:01.298Z,29.3
2024-02-27T12:00:02.033Z,29.3
2024-02-27T12:05:01.684Z,29.3
2024-02-27T12:10:01.536Z,29.4
2024-02-27T12:15:01.413Z,29.3
2024-02-27T12:20:01.802Z,29.3
2024-02-27T12:25:01.444Z,29.3
2024-02-27T12:30:01.956Z,29.3
2024-02-27T12:35:01.243Z,29.2
2024-02-27T12:40:02.107Z,29.2
2024-02-27T12:45:01.440Z,29.3
2024-02-27T12:50:01.807Z,29.2
2024-02-27T12:55:01.416Z,29.2
2024-02-27T13:00:02.086Z,29.1
2024-02-27T13:05:01.774Z,29.1
2024-02-27T13:10:01.558Z,29.2
2024-02-27T13:15:01.394Z,29.1
2024-02-27T13:20:01.864Z,29.3
2024-02-27T13:25:01.534Z,29.1
2024-02-27T13:30:01.224Z,29.1
2024-02-27T13:35:01.287Z,29.2
2024-02-27T13:40:01.722Z,29.2
2024-02-27T13:45:01.536Z,29.1
2024-02-27T13:50:01.951Z,29.1
2024-02-27T13:55:01.354Z,29.1
2024-02-27T14:00:01.184Z,29.1
2024-02-27T14:05:01.864Z,29.1
2024-02-27T14:10:01.709Z,29.1
2024-02-27T14:15:01.513Z,29.1
2024-02-27T14:20:01.555Z,29.1
2024-02-27T14:25:01.540Z,29
2024-02-27T14:30:01.968Z,29
2024-02-27T14:35:01.495Z,29.1
2024-02-27T14:40:01.235Z,29.1
2024-02-27T14:45:01.223Z,29
2024-02-27T14:50:01.188Z,29
2024-02-27T14:55:01.262Z,29.1
2024-02-27T15:00:02.158Z,29
2024-02-27T15:05:01.913Z,29
2024-02-27T15:10:01.663Z,29
2024-02-27T15:15:02.069Z,29.1
2024-02-27T15:20:01.567Z,29
2024-02-27T15:25:01.180Z,28.9
2024-02-27T15:30:01.941Z,29
2024-02-27T15:35:01.715Z,28.9
2024-02-27T15:40:01.120Z,29
2024-02-27T15:45:01.831Z,29
2024-02-27T15:50:01.565Z,28.9
2024-02-27T15:55:01.541Z,28.7
2024-02-27T16:00:01.466Z,28.6
2024-02-27T16:05:01.828Z,28.3
2024-02-27T16:10:01.545Z,27.4
2024-02-27T16:15:01.489Z,25.5
2024-02-27T16:20:01.338Z,24.4
2024-02-27T16:25:01.932Z,23.9
2024-02-27T16:30:01.437Z,23.9
2024-02-27T16:35:01.256Z,23.9
2024-02-27T16:40:01.400Z,24
2024-02-27T16:45:01.424Z,23.9
2024-02-27T16:50:01.704Z,23.9
2024-02-27T16:55:01.585Z,23.7
2024-02-27T17:00:01.432Z,24
2024-02-27T17:05:01.739Z,24.1
2024-02-27T17:10:01.871Z,23.9
2024-02-27T17:15:01.863Z,24.1
2024-02-27T17:20:01.859Z,23.9
2024-02-27T17:25:01.654Z,23.9
2024-02-27T17:30:01.731Z,24.2
2024-02-27T17:35:01.976Z,24.3
2024-02-27T17:40:01.825Z,24.3
2024-02-27T17:45:01.695Z,24.2
2024-02-27T17:50:01.723Z,24.1
2024-02-27T17:55:01.544Z,24.3
2024-02-27T18:00:01.355Z,24.3
2024-02-27T18:05:01.458Z,24.3
2024-02-27T18:10:01.842Z,24.4
2024-02-27T18:15:02.150Z,24.4
2024-02-27T18:20:01.230Z,24.4
2024-02-27T18:25:01.151Z,24.4
2024-02-27T18:30:01.930Z,24.4
2024-02-27T18:35:01.858Z,24.4
2024-02-27T18:40:02.090Z,24.6
2024-02-27T18:45:01.838Z,24.6
2024-02-27T18:50:01.694Z,24.5
2024-02-27T18:55:01.539Z,24.4
2024-02-27T19:00:01.200Z,24.4
2024-02-27T19:05:01.823Z,24.5
2024-02-27T19:10:01.677Z,24.4
2024-02-27T19:15:01.159Z,24.3
2024-02-27T19:20:01.687Z,24.4
2024-02-27T19:25:02.102Z,24.3
2024-02-27T19:30:01.866Z,24.2
2024-02-27T19:35:01.346Z,24.3
2024-02-27T19:40:01.878Z,24.3
2024-02-27T19:45:01.372Z,24.4
2024-02-27T19:50:01.915Z,24.3
2024-02-27T19:55:01.414Z,24.2
2024-02-27T20:00:01.283Z,24.2
2024-02-27T20:05:01.216Z,24.2
2024-02-27T20:10:01.740Z,24.1
2024-02-27T20:15:01.368Z,24.1
2024-02-27T20:20:02.048Z,24.1
2024-02-27T20:25:01.659Z,24.1
2024-02-27T20:30:01.318Z,24.1
2024-02-27T20:35:01.847Z,24.1
2024-02-27T20:40:01.413Z,24.1
2024-02-27T20:45:02.060Z,24.2
2024-02-27T20:50:01.610Z,24.3
2024-02-27T20:55:01.119Z,24.3
2024-02-27T21:00:01.684Z,24.3
2024-02-27T21:05:01.325Z,24.2
2024-02-27T21:10:01.233Z,24.3
2024-02-27T21:15:02.353Z,24.3
2024-02-27T21:20:01.481Z,24.4
2024-02-27T21:25:02.078Z,24.4
2024-02-27T21:30:01.515Z,24.4
2024-02-27T21:35:02.092Z,24.4
2024-02-27T21:40:01.776Z,24.4
2024-02-27T21:45:01.376Z,24.4
2024-02-27T21:50:01.971Z,24.4
2024-02-27T21:55:01.974Z,24.4
2024-02-27T22:00:01.476Z,24.5
2024-02-27T22:05:02.053Z,24.5
2024-02-27T22:10:01.554Z,24.6
2024-02-27T22:15:02.057Z,24.6
2024-02-27T22:20:01.578Z,24.7
2024-02-27T22:25:02.103Z,24.7
2024-02-27T22:30:01.711Z,25
2024-02-27T22:35:01.177Z,25
2024-02-27T22:40:01.789Z,25.1
2024-02-27T22:45:01.827Z,25.2
2024-02-27T22:50:01.655Z,25.3
2024-02-27T22:55:01.400Z,25.3
2024-02-27T23:00:01.920Z,25.2
2024-02-27T23:05:01.504Z,25.1
2024-02-27T23:10:01.286Z,25.2
2024-02-27T23:15:01.685Z,25.2
2024-02-27T23:20:01.615Z,25.3
2024-02-27T23:25:01.326Z,25.2
2024-02-27T23:30:01.420Z,25.3
2024-02-27T23:35:01.275Z,26.2
2024-02-27T23:40:02.022Z,26.8
2024-02-27T23:45:01.899Z,26.7
2024-02-27T23:50:01.655Z,26.8
2024-02-27T23:55:01.648Z,26.6
